logo tempoitalia

Diretta Meteo Chisinau, Moldavialunedì 31 agosto ore 08:00

Mappa
Sereno 18 °C Sereno 24 Ore: T.min 14 T.max 30
Ponente Nord Km/h 1.8 Punto di rugiada: 12 °C Umidità: 67% Visibilità: 10 Km
Il sole sorge alle: 06:22 Il sole tramonta alle: 19:46
31 Agosto 2026 08:00 tempo osservato: Sereno Sereno 18 67 1019 vento: Nord N 1.8
31 Agosto 2026 07:30 tempo osservato: Sereno Sereno 17 72 1019 vento: Nord N 1.8
31 Agosto 2026 07:00 tempo osservato: Sereno Sereno 15 82 1019 vento: Nord N 1.8
31 Agosto 2026 06:30 tempo osservato: Sereno Sereno 14 82 1018 vento: Nord N 5.5
31 Agosto 2026 06:00 tempo osservato: Sereno Sereno 16 77 1018 vento: Nord N 5.5
31 Agosto 2026 05:30 tempo osservato: Sereno Sereno 15 82 1018 vento: Nord N 3.7
31 Agosto 2026 05:00 tempo osservato: Sereno Sereno 15 82 1018 vento: Nord N 5.5
31 Agosto 2026 04:30 tempo osservato: Sereno Sereno 16 77 1018 vento: Nord E/SE 7.4
31 Agosto 2026 04:00 tempo osservato: Sereno Sereno 17 72 1018 vento: Nord N 1.8
31 Agosto 2026 03:30 tempo osservato: Sereno Sereno 18 63 1018 vento: Nord N 3.7
31 Agosto 2026 03:00 tempo osservato: Sereno Sereno 17 67 1018 vento: Nord N 3.7
31 Agosto 2026 02:30 tempo osservato: Sereno Sereno 20 52 1018 vento: Nord O 9.3
31 Agosto 2026 02:00 tempo osservato: Sereno Sereno 21 49 1018 vento: Nord O 7.4
31 Agosto 2026 01:30 tempo osservato: Sereno Sereno 22 46 1018 vento: Nord O 11.1
31 Agosto 2026 01:00 tempo osservato: Sereno Sereno 22 46 1018 vento: Nord O 11.1
31 Agosto 2026 00:30 tempo osservato: Sereno Sereno 23 43 1018 vento: Nord O 9.3
31 Agosto 2026 00:00 tempo osservato: Sereno Sereno 22 46 1018 vento: Nord O 9.3
30 Agosto 2026 23:30 tempo osservato: Sereno Sereno 22 49 1018 vento: Nord SO 9.3
30 Agosto 2026 23:00 tempo osservato: Sereno Sereno 23 43 1018 vento: Nord O/SO 9.3
30 Agosto 2026 22:30 tempo osservato: Sereno Sereno 22 49 1018 vento: Nord SO 9.3
30 Agosto 2026 22:00 tempo osservato: Sereno Sereno 22 46 1018 vento: Nord N 1.8
30 Agosto 2026 21:30 tempo osservato: Sereno Sereno 23 43 1018 vento: Nord S/SO 9.3
30 Agosto 2026 21:00 tempo osservato: Sereno Sereno 24 41 1018 vento: Nord S 14.8
30 Agosto 2026 20:30 tempo osservato: Sereno Sereno 25 38 1018 vento: Nord S 11.1
30 Agosto 2026 20:00 tempo osservato: Sereno Sereno 25 38 1017 vento: Nord S/SE 9.3
30 Agosto 2026 19:30 tempo osservato: Sereno Sereno 27 34 1017 vento: Nord S/SE 14.8
30 Agosto 2026 19:00 tempo osservato: Sereno Sereno 28 32 1017 vento: Nord S/SE 16.7
30 Agosto 2026 18:30 tempo osservato: Sereno Sereno 29 30 1017 vento: Nord S/SE 11.1
30 Agosto 2026 18:00 tempo osservato: Sereno Sereno 30 28 1017 vento: Nord S 13
30 Agosto 2026 17:30 tempo osservato: Sereno Sereno 30 28 1017 vento: Nord S 7.4
30 Agosto 2026 17:00 tempo osservato: Sereno Sereno 30 28 1017 vento: Nord S/SO 13
30 Agosto 2026 16:30 tempo osservato: Sereno Sereno 30 28 1017 vento: Nord S 7.4
30 Agosto 2026 16:00 tempo osservato: Sereno Sereno 30 28 1017 vento: Nord S 9.3
30 Agosto 2026 15:30 tempo osservato: Sereno Sereno 30 30 1017 vento: Nord S/SO 11.1
30 Agosto 2026 15:00 tempo osservato: Sereno Sereno 29 32 1018 vento: Nord S 11.1
30 Agosto 2026 14:30 tempo osservato: Sereno Sereno 30 30 1018 vento: Nord S 13
30 Agosto 2026 14:00 tempo osservato: Sereno Sereno 29 32 1018 vento: Nord S 11.1
30 Agosto 2026 13:30 tempo osservato: Sereno Sereno 29 35 1018 vento: Nord S 20.3
30 Agosto 2026 13:00 tempo osservato: Sereno Sereno 29 35 1018 vento: Nord S 14.8
30 Agosto 2026 12:30 tempo osservato: Sereno Sereno 29 37 1019 vento: Nord S 13
30 Agosto 2026 12:00 tempo osservato: Sereno Sereno 28 48 1019 vento: Nord N 7.4
30 Agosto 2026 11:30 tempo osservato: Sereno Sereno 25 53 1019 vento: Nord E/NE 11.1
30 Agosto 2026 11:00 tempo osservato: Sereno Sereno 24 53 1019 vento: Nord E/NE 7.4
30 Agosto 2026 10:30 tempo osservato: Sereno Sereno 21 73 1019 vento: Nord N 5.5
30 Agosto 2026 10:00 tempo osservato: Pioggia Pioggia 20 77 1019 vento: Nord N 5.5
30 Agosto 2026 09:30 tempo osservato: Pioggia Pioggia 19 77 1019 vento: Nord N 5.5
30 Agosto 2026 09:00 tempo osservato: Pioggia Pioggia 19 77 1018 vento: Nord N 1.8